Time;durP1;ratioP1;P1;durP2;ratioP2;P2;SDS_P1;SDS_P2;PMS_P1;PMS_P2;Temp;Humidity;BMP_temperature;BMP_pressure;BME280_temperature;BME280_humidity;BME280_pressure;Samples;Min_cycle;Max_cycle;Signal;HPM_P1;HPM_P2
2021/05/02 00:01:03;;;;;;;9.30;8.40;;;;;;;11.21;44.65;99003.66;4975430;28;20239;-72
2021/05/02 00:03:29;;;;;;;9.75;7.80;;;;;;;11.30;44.78;99014.78;4975026;28;20214;-73
2021/05/02 00:05:56;;;;;;;10.25;9.15;;;;;;;11.33;44.47;99007.34;4974907;28;20322;-72
2021/05/02 00:08:23;;;;;;;8.77;8.05;;;;;;;11.16;45.06;99010.38;4974881;28;20188;-71
2021/05/02 00:10:49;;;;;;;9.77;8.77;;;;;;;11.30;45.04;99009.41;4975315;28;20702;-73
2021/05/02 00:13:15;;;;;;;11.35;9.70;;;;;;;11.37;44.87;99011.53;4975129;28;20283;-71
2021/05/02 00:15:41;;;;;;;9.90;9.02;;;;;;;11.33;45.32;99012.75;4975223;28;20749;-72
2021/05/02 00:18:08;;;;;;;9.88;8.90;;;;;;;11.19;45.64;99011.03;4975012;28;20188;-72
2021/05/02 00:20:34;;;;;;;10.52;8.90;;;;;;;11.18;45.84;99016.50;4975149;28;20621;-71
2021/05/02 00:23:04;;;;;;;9.35;8.48;;;;;;;11.12;46.01;99020.47;4974585;28;20220;-72
2021/05/02 00:25:32;;;;;;;10.20;9.10;;;;;;;11.00;46.35;99018.66;4974825;28;20278;-74
2021/05/02 00:27:59;;;;;;;12.18;9.00;;;;;;;11.13;46.04;99021.38;4974475;28;20230;-71
2021/05/02 00:30:27;;;;;;;10.63;9.27;;;;;;;10.94;46.45;99021.75;4974491;28;20269;-72
2021/05/02 00:32:54;;;;;;;10.60;9.60;;;;;;;10.97;46.36;99019.72;4974739;28;20246;-73
2021/05/02 00:35:22;;;;;;;10.02;8.90;;;;;;;10.95;46.53;99023.50;4974534;28;20185;-72
2021/05/02 00:37:50;;;;;;;11.23;8.90;;;;;;;10.92;46.61;99024.59;4974156;28;20206;-72
2021/05/02 00:40:18;;;;;;;10.60;9.60;;;;;;;10.97;46.80;99018.88;4974845;28;20687;-70
2021/05/02 00:42:48;;;;;;;11.50;9.05;;;;;;;10.97;46.56;99022.44;4974796;28;20235;-72
2021/05/02 00:45:23;;;;;;;11.65;8.70;;;;;;;10.90;46.64;99021.13;4974630;28;20697;-72
2021/05/02 00:47:54;;;;;;;10.68;9.57;;;;;;;10.87;46.78;99017.78;4974288;28;20227;-72
2021/05/02 00:50:27;;;;;;;10.50;9.50;;;;;;;10.91;46.50;99028.22;4974476;28;20230;-71
2021/05/02 00:53:12;;;;;;;10.60;9.60;;;;;;;10.88;46.68;99025.75;4974653;28;20211;-73
2021/05/02 00:55:46;;;;;;;10.20;9.20;;;;;;;10.70;47.13;99029.72;4974863;28;20611;-70
2021/05/02 00:58:26;;;;;;;10.85;9.70;;;;;;;10.78;46.90;99032.72;4974113;28;20248;-72
2021/05/02 01:00:56;;;;;;;9.95;8.80;;;;;;;10.78;47.10;99027.34;4974629;28;21011;-71
2021/05/02 01:03:24;;;;;;;10.60;9.32;;;;;;;10.83;47.12;99028.75;4974518;28;20289;-73
2021/05/02 01:05:53;;;;;;;9.15;8.30;;;;;;;10.80;47.27;99036.19;4973772;28;20314;-73
2021/05/02 01:08:19;;;;;;;10.40;9.40;;;;;;;10.84;46.95;99030.47;4955352;28;20555;-72
2021/05/02 01:10:46;;;;;;;9.95;9.02;;;;;;;10.76;47.24;99031.97;4973962;28;20206;-72
2021/05/02 01:13:15;;;;;;;9.88;8.88;;;;;;;10.75;47.44;99032.94;4974032;28;20257;-70
2021/05/02 01:15:45;;;;;;;10.30;9.20;;;;;;;10.69;47.52;99036.03;4974414;28;20415;-72
2021/05/02 01:18:12;;;;;;;10.80;9.80;;;;;;;10.78;47.46;99036.28;4974385;28;20633;-70
2021/05/02 01:20:42;;;;;;;11.65;10.50;;;;;;;10.94;47.07;99033.38;4973744;28;20202;-72
2021/05/02 01:23:20;;;;;;;11.57;10.43;;;;;;;10.98;46.90;99034.06;4974444;28;20191;-73
2021/05/02 01:25:46;;;;;;;11.38;9.68;;;;;;;10.61;47.87;99036.56;4974182;28;20242;-74
2021/05/02 01:28:13;;;;;;;11.38;10.27;;;;;;;10.69;47.59;99046.81;4974346;28;20288;-71
2021/05/02 01:30:41;;;;;;;11.18;9.98;;;;;;;10.64;47.92;99039.91;4974119;28;20697;-73
2021/05/02 01:33:07;;;;;;;11.05;9.98;;;;;;;10.57;48.07;99046.66;4973853;28;20215;-73
2021/05/02 01:35:33;;;;;;;11.57;10.38;;;;;;;10.62;47.86;99036.44;4974076;28;20709;-73
2021/05/02 01:38:00;;;;;;;12.70;11.35;;;;;;;10.59;47.95;99041.19;4974072;28;20660;-73
2021/05/02 01:40:27;;;;;;;11.30;10.20;;;;;;;10.57;47.90;99041.28;4973773;28;20302;-70
2021/05/02 01:42:53;;;;;;;12.00;10.80;;;;;;;10.44;48.33;99037.69;4974352;28;20635;-71
2021/05/02 01:45:19;;;;;;;13.02;10.90;;;;;;;10.55;48.35;99040.53;4974076;28;20230;-71
2021/05/02 01:47:48;;;;;;;13.13;11.75;;;;;;;10.50;48.46;99044.50;4973656;28;20246;-72
2021/05/02 01:50:16;;;;;;;13.25;11.95;;;;;;;10.56;48.31;99036.88;4973910;28;20667;-70
2021/05/02 01:52:45;;;;;;;14.13;12.25;;;;;;;10.49;48.52;99050.81;4973361;28;20202;-73
2021/05/02 01:55:13;;;;;;;13.27;11.98;;;;;;;10.48;48.58;99055.34;4974439;28;20194;-73
2021/05/02 01:57:40;;;;;;;13.30;12.00;;;;;;;10.47;48.80;99056.34;4974235;28;20661;-72
2021/05/02 02:00:10;;;;;;;14.70;13.02;;;;;;;10.34;49.32;99052.72;4975609;28;20230;-72
2021/05/02 02:02:37;;;;;;;13.68;10.52;;;;;;;10.34;50.20;99061.66;4977899;28;20237;-72
2021/05/02 02:05:06;;;;;;;13.18;11.88;;;;;;;10.38;50.12;99059.63;4977192;28;20233;-72
2021/05/02 02:07:33;;;;;;;12.10;10.70;;;;;;;10.47;50.31;99067.09;4977543;28;20616;-72
2021/05/02 02:09:59;;;;;;;13.38;10.95;;;;;;;10.31;50.42;99071.75;4977303;28;20277;-71
2021/05/02 02:12:26;;;;;;;12.35;11.23;;;;;;;10.34;50.09;99074.25;4977028;28;20283;-73
2021/05/02 02:14:53;;;;;;;13.95;12.50;;;;;;;10.68;48.85;99072.03;4977398;28;20237;-72
2021/05/02 02:17:20;;;;;;;13.90;12.43;;;;;;;10.33;49.65;99077.88;4977375;28;20211;-73
2021/05/02 02:19:47;;;;;;;13.98;12.63;;;;;;;10.28;49.75;99078.16;4977036;28;20192;-73
2021/05/02 02:22:15;;;;;;;14.20;12.18;;;;;;;10.21;49.90;99077.69;4976605;28;20239;-71
2021/05/02 02:24:44;;;;;;;12.50;11.40;;;;;;;10.19;50.13;99082.31;4977117;28;20289;-72
2021/05/02 02:27:13;;;;;;;13.52;12.23;;;;;;;10.15;50.17;99086.19;4976887;28;20754;-72
2021/05/02 02:29:43;;;;;;;14.10;12.75;;;;;;;10.01;50.50;99088.88;4976844;28;20206;-71
2021/05/02 02:32:12;;;;;;;14.50;12.93;;;;;;;10.02;50.67;99088.78;4977035;28;20225;-72
2021/05/02 02:34:42;;;;;;;14.20;12.70;;;;;;;9.92;50.89;99089.47;4977316;28;20698;-71
2021/05/02 02:37:12;;;;;;;14.13;12.82;;;;;;;9.90;51.06;99094.06;4977231;28;20223;-72
2021/05/02 02:39:39;;;;;;;14.18;12.85;;;;;;;9.97;51.08;99095.41;4977318;28;20228;-72
2021/05/02 02:42:08;;;;;;;13.73;12.30;;;;;;;9.98;51.39;99100.69;4976871;28;20594;-72
2021/05/02 02:44:38;;;;;;;14.02;12.02;;;;;;;9.96;51.52;99094.56;4977193;28;20640;-72
2021/05/02 02:47:09;;;;;;;15.05;12.38;;;;;;;9.93;51.59;99096.59;4984153;28;20568;-72
2021/05/02 02:49:42;;;;;;;13.10;11.90;;;;;;;9.91;51.60;99096.69;4976203;28;20272;-71
2021/05/02 02:52:10;;;;;;;14.55;13.05;;;;;;;9.78;51.93;99101.94;4976815;28;20228;-72
2021/05/02 02:54:38;;;;;;;14.30;12.45;;;;;;;9.78;51.90;99099.25;4976676;28;20619;-72
2021/05/02 02:57:07;;;;;;;14.10;12.60;;;;;;;9.93;51.61;99108.19;4976654;28;20201;-72
2021/05/02 02:59:37;;;;;;;14.60;13.07;;;;;;;9.76;51.97;99108.38;4976913;28;20271;-71
2021/05/02 03:02:06;;;;;;;13.98;12.68;;;;;;;9.68;52.13;99103.50;4976461;28;20190;-73
2021/05/02 03:04:35;;;;;;;14.38;13.02;;;;;;;9.58;52.54;99110.41;4976374;28;20560;-72
2021/05/02 03:07:03;;;;;;;13.75;12.45;;;;;;;9.64;53.26;99111.84;4976399;28;20205;-73
2021/05/02 03:09:31;;;;;;;13.60;12.30;;;;;;;9.72;54.00;99112.22;4976484;28;20231;-72
2021/05/02 03:11:57;;;;;;;14.60;13.05;;;;;;;9.70;54.13;99111.44;4975645;28;20197;-73
2021/05/02 03:14:23;;;;;;;13.55;12.15;;;;;;;9.84;53.91;99113.31;4976572;28;20285;-73
2021/05/02 03:16:52;;;;;;;14.18;12.68;;;;;;;9.75;54.30;99120.13;4976173;28;20276;-73
2021/05/02 03:19:24;;;;;;;13.73;12.43;;;;;;;9.68;54.36;99132.19;4976110;28;20236;-72
2021/05/02 03:21:53;;;;;;;14.23;12.82;;;;;;;9.64;54.09;99134.22;4976508;28;20237;-72
2021/05/02 03:24:28;;;;;;;14.70;13.30;;;;;;;9.53;54.67;99136.69;4975890;28;20232;-71
2021/05/02 03:27:00;;;;;;;14.35;12.85;;;;;;;9.46;54.87;99146.09;4975962;28;20205;-72
2021/05/02 03:29:33;;;;;;;14.77;13.27;;;;;;;9.37;54.93;99151.06;4976499;28;20201;-72
2021/05/02 03:32:03;;;;;;;14.23;12.82;;;;;;;9.22;55.33;99151.13;4975694;28;20195;-72
2021/05/02 03:34:30;;;;;;;16.10;14.60;;;;;;;9.14;55.67;99156.97;4975820;28;20331;-72
2021/05/02 03:36:59;;;;;;;15.48;13.80;;;;;;;9.05;55.75;99152.13;4976158;28;20602;-72
2021/05/02 03:39:27;;;;;;;15.77;13.25;;;;;;;9.00;56.09;99155.09;4976244;28;20607;-73
2021/05/02 03:41:53;;;;;;;16.70;14.85;;;;;;;8.94;56.06;99166.19;4975709;28;20648;-73
2021/05/02 03:44:19;;;;;;;15.75;13.60;;;;;;;9.06;55.66;99161.91;4975605;28;20232;-73
2021/05/02 03:46:45;;;;;;;16.17;14.50;;;;;;;8.97;55.89;99163.31;4975796;28;20270;-72
2021/05/02 03:49:11;;;;;;;14.35;12.95;;;;;;;8.82;56.45;99165.09;4975760;28;20396;-73
2021/05/02 03:51:41;;;;;;;15.00;13.45;;;;;;;8.85;56.63;99170.25;4975484;28;20192;-72
2021/05/02 03:54:07;;;;;;;15.60;14.05;;;;;;;8.74;56.73;99164.66;4975524;28;20203;-73
2021/05/02 03:56:39;;;;;;;14.70;13.20;;;;;;;8.88;56.40;99174.59;4975544;28;20626;-72
2021/05/02 03:59:08;;;;;;;17.08;15.30;;;;;;;8.74;56.82;99170.88;4975793;28;20329;-72
2021/05/02 04:01:34;;;;;;;15.50;13.93;;;;;;;8.66;57.06;99178.53;4975682;28;20658;-72
2021/05/02 04:04:00;;;;;;;16.50;14.80;;;;;;;8.54;57.85;99180.06;4975382;28;20276;-72
2021/05/02 04:06:27;;;;;;;16.55;14.73;;;;;;;8.54;57.59;99185.41;4974886;28;20246;-71
2021/05/02 04:08:53;;;;;;;17.48;15.55;;;;;;;8.50;57.74;99180.31;4975335;28;20214;-72
2021/05/02 04:11:20;;;;;;;16.10;14.40;;;;;;;8.50;57.78;99181.19;4974854;28;20279;-72
2021/05/02 04:13:47;;;;;;;16.65;14.95;;;;;;;8.43;58.30;99189.66;4975548;28;20279;-72
2021/05/02 04:16:14;;;;;;;15.90;14.20;;;;;;;8.42;58.36;99193.31;4975417;28;20200;-72
2021/05/02 04:18:40;;;;;;;23.83;14.95;;;;;;;8.27;58.93;99198.53;4975403;28;20188;-72
2021/05/02 04:21:07;;;;;;;16.85;15.15;;;;;;;8.25;59.00;99200.41;4975196;28;20224;-73
2021/05/02 04:23:33;;;;;;;16.48;14.80;;;;;;;8.28;58.98;99202.09;4973717;28;20188;-73
2021/05/02 04:25:59;;;;;;;16.90;15.13;;;;;;;8.33;58.90;99205.38;4975017;28;20212;-72
2021/05/02 04:28:26;;;;;;;16.40;14.70;;;;;;;8.31;58.98;99210.81;4974102;28;20208;-70
2021/05/02 04:30:53;;;;;;;18.63;15.40;;;;;;;8.27;59.17;99208.38;4974794;28;20311;-72
2021/05/02 04:33:19;;;;;;;16.65;14.93;;;;;;;8.13;59.63;99219.88;4974845;28;20203;-72
2021/05/02 04:35:45;;;;;;;20.38;15.85;;;;;;;8.14;59.60;99217.13;4975423;28;20619;-72
2021/05/02 04:38:11;;;;;;;19.58;14.65;;;;;;;8.08;59.78;99220.13;4975100;28;20275;-72
2021/05/02 04:40:38;;;;;;;18.55;15.07;;;;;;;8.11;59.74;99222.63;4974405;28;20287;-72
2021/05/02 04:43:04;;;;;;;17.42;15.40;;;;;;;8.17;59.66;99225.94;4974656;28;20246;-71
2021/05/02 04:45:30;;;;;;;19.88;15.32;;;;;;;8.14;59.75;99230.53;4974796;28;20231;-72
2021/05/02 04:47:57;;;;;;;18.45;15.20;;;;;;;8.07;60.14;99239.84;4974142;28;20216;-72
2021/05/02 04:50:23;;;;;;;18.20;14.93;;;;;;;7.98;60.73;99237.63;4974546;28;20518;-71
2021/05/02 04:52:49;;;;;;;17.00;15.40;;;;;;;8.00;60.48;99234.88;4974956;28;20263;-72
2021/05/02 04:55:15;;;;;;;19.77;16.25;;;;;;;7.98;60.70;99245.69;4974250;28;20192;-72
2021/05/02 04:57:41;;;;;;;20.60;16.42;;;;;;;7.90;61.14;99246.09;4974841;28;20299;-73
2021/05/02 05:00:08;;;;;;;17.63;15.68;;;;;;;7.88;61.67;99250.66;4974041;28;20200;-71
2021/05/02 05:02:35;;;;;;;20.75;16.48;;;;;;;8.00;61.34;99253.66;4974486;28;20667;-72
2021/05/02 05:05:02;;;;;;;18.40;16.00;;;;;;;7.89;61.81;99251.53;4974093;28;20271;-71
2021/05/02 05:07:28;;;;;;;19.63;17.40;;;;;;;7.93;61.92;99253.09;4974267;28;20560;-71
2021/05/02 05:09:54;;;;;;;21.50;17.33;;;;;;;8.00;61.64;99259.88;4974183;28;20208;-72
2021/05/02 05:12:20;;;;;;;19.35;16.85;;;;;;;8.00;61.66;99259.88;4974598;28;20596;-73
2021/05/02 05:14:46;;;;;;;20.73;17.13;;;;;;;7.87;62.04;99256.13;4974785;28;20631;-71
2021/05/02 05:17:12;;;;;;;21.30;17.55;;;;;;;7.98;61.91;99267.13;4974479;28;20646;-72
2021/05/02 05:19:39;;;;;;;20.13;17.65;;;;;;;7.94;62.15;99268.25;4973907;28;20246;-72
2021/05/02 05:22:06;;;;;;;19.45;17.10;;;;;;;7.86;62.38;99273.16;4974285;28;20228;-72
2021/05/02 05:24:32;;;;;;;20.60;17.75;;;;;;;7.90;62.39;99270.22;4974105;28;20298;-71
2021/05/02 05:26:58;;;;;;;18.60;16.70;;;;;;;7.93;62.45;99274.56;4974032;28;20216;-73
2021/05/02 05:29:24;;;;;;;20.60;17.70;;;;;;;8.05;62.06;99286.44;4974375;28;20580;-73
2021/05/02 05:31:50;;;;;;;20.60;17.08;;;;;;;8.04;62.43;99285.59;4974118;28;20215;-72
2021/05/02 05:34:16;;;;;;;20.27;17.95;;;;;;;8.10;62.24;99289.78;4974524;28;20191;-72
2021/05/02 05:36:42;;;;;;;19.75;17.65;;;;;;;8.22;61.91;99293.59;4977685;28;20208;-72
2021/05/02 05:39:09;;;;;;;23.15;16.92;;;;;;;8.19;62.24;99299.16;4977892;28;20275;-72
2021/05/02 05:41:35;;;;;;;19.00;16.98;;;;;;;8.15;62.35;99301.09;4977998;28;20188;-72
2021/05/02 05:44:01;;;;;;;21.55;17.95;;;;;;;8.14;62.30;99296.72;4977783;28;20592;-71
2021/05/02 05:46:28;;;;;;;20.08;16.80;;;;;;;8.18;61.56;99305.44;4978036;28;20250;-73
2021/05/02 05:48:54;;;;;;;18.83;16.67;;;;;;;8.07;61.75;99298.84;4977978;28;20948;-70
2021/05/02 05:51:20;;;;;;;25.63;18.58;;;;;;;8.23;61.36;99308.75;4978074;28;20200;-73
2021/05/02 05:53:46;;;;;;;21.38;17.27;;;;;;;8.46;60.79;99305.75;4977869;28;20204;-72
2021/05/02 05:56:13;;;;;;;21.48;17.35;;;;;;;8.59;60.20;99313.97;4977964;28;20193;-71
2021/05/02 05:58:39;;;;;;;18.65;16.65;;;;;;;8.51;60.37;99318.91;4977222;28;20204;-70
2021/05/02 06:01:05;;;;;;;19.35;17.25;;;;;;;8.49;60.70;99318.97;4977364;28;20223;-69
2021/05/02 06:03:31;;;;;;;17.80;16.00;;;;;;;8.44;60.78;99320.19;4977929;28;20581;-71
2021/05/02 06:05:58;;;;;;;19.30;17.23;;;;;;;8.34;61.41;99322.44;4977079;28;20224;-73
2021/05/02 06:08:24;;;;;;;19.13;17.08;;;;;;;8.37;61.36;99319.63;4977390;28;20200;-71
2021/05/02 06:10:52;;;;;;;21.30;18.02;;;;;;;8.54;60.97;99332.16;4985308;28;20667;-71
2021/05/02 06:13:19;;;;;;;21.08;18.77;;;;;;;8.44;61.30;99330.94;4977244;28;20227;-72
2021/05/02 06:15:45;;;;;;;23.38;18.02;;;;;;;8.70;60.42;99330.34;4977548;28;20231;-70
2021/05/02 06:18:12;;;;;;;20.80;17.70;;;;;;;8.71;60.40;99333.94;4977278;28;20266;-72
2021/05/02 06:20:38;;;;;;;20.20;18.02;;;;;;;8.74;60.37;99339.13;4977284;28;20307;-71
2021/05/02 06:23:04;;;;;;;20.63;18.00;;;;;;;8.82;59.61;99336.91;4988350;28;20667;-71
2021/05/02 06:25:30;;;;;;;22.00;18.17;;;;;;;8.69;59.98;99341.19;4996114;28;20210;-71
2021/05/02 06:27:59;;;;;;;24.52;17.05;;;;;;;8.96;59.15;99328.94;4976881;28;20224;-71
2021/05/02 06:30:26;;;;;;;23.10;17.60;;;;;;;8.97;59.03;99336.03;4977323;28;20239;-70
2021/05/02 06:32:52;;;;;;;21.15;18.33;;;;;;;9.01;58.88;99343.94;4976939;28;20224;-72
2021/05/02 06:35:19;;;;;;;20.52;18.45;;;;;;;8.84;59.20;99351.09;4977366;28;20214;-71
2021/05/02 06:37:45;;;;;;;20.20;18.08;;;;;;;8.98;58.87;99350.34;4977264;28;20270;-72
2021/05/02 06:40:12;;;;;;;18.83;16.83;;;;;;;9.10;58.87;99351.47;4977103;28;20273;-71
2021/05/02 06:42:38;;;;;;;22.17;18.25;;;;;;;9.43;57.72;99348.69;4977460;28;20204;-71
2021/05/02 06:45:05;;;;;;;19.23;17.08;;;;;;;9.25;58.23;99347.03;4977285;28;20204;-72
2021/05/02 06:47:32;;;;;;;20.75;17.83;;;;;;;9.17;58.27;99348.34;4976075;28;20250;-72
2021/05/02 06:49:58;;;;;;;20.70;17.40;;;;;;;9.23;58.19;99352.50;4977333;28;20192;-73
2021/05/02 06:52:24;;;;;;;19.80;17.60;;;;;;;9.37;57.79;99347.22;4976835;28;20235;-72
2021/05/02 06:54:51;;;;;;;20.95;18.77;;;;;;;9.43;57.72;99355.88;4977397;28;20193;-72
2021/05/02 06:57:17;;;;;;;21.58;19.27;;;;;;;9.47;57.57;99355.59;4977137;28;20536;-72
2021/05/02 06:59:43;;;;;;;20.45;18.00;;;;;;;9.51;57.57;99357.16;4988725;28;20192;-70
2021/05/02 07:02:09;;;;;;;22.10;18.00;;;;;;;9.55;57.53;99356.03;4996309;28;20207;-70
2021/05/02 07:04:36;;;;;;;20.50;18.33;;;;;;;9.55;57.58;99353.34;4996295;28;20710;-70
2021/05/02 07:07:03;;;;;;;21.77;18.77;;;;;;;9.57;57.50;99356.81;4996307;28;20247;-72
2021/05/02 07:09:30;;;;;;;23.98;19.73;;;;;;;9.65;57.37;99363.56;4996162;28;20195;-72
2021/05/02 07:11:56;;;;;;;22.63;19.48;;;;;;;9.61;57.29;99360.22;4996132;28;20244;-71
2021/05/02 07:14:22;;;;;;;22.30;18.63;;;;;;;9.58;57.67;99373.81;4996312;28;20673;-71
2021/05/02 07:16:48;;;;;;;20.27;17.88;;;;;;;9.67;57.56;99364.34;4977939;28;20652;-70
2021/05/02 07:19:15;;;;;;;19.75;17.40;;;;;;;9.94;56.75;99370.78;4976963;28;20276;-69
2021/05/02 07:21:42;;;;;;;21.00;18.80;;;;;;;10.16;56.35;99373.06;4976691;28;20197;-72
2021/05/02 07:24:09;;;;;;;22.02;18.77;;;;;;;10.20;55.87;99371.94;4976478;28;20208;-72
2021/05/02 07:26:35;;;;;;;20.52;18.42;;;;;;;10.43;55.00;99380.47;4976794;28;20632;-70
2021/05/02 07:29:01;;;;;;;25.98;19.40;;;;;;;10.70;54.20;99385.13;4976025;28;20198;-71
2021/05/02 07:31:27;;;;;;;26.58;20.27;;;;;;;10.75;53.86;99383.88;4975956;28;20207;-70
2021/05/02 07:33:53;;;;;;;25.55;21.00;;;;;;;10.39;54.57;99381.63;4984554;28;20194;-72
2021/05/02 07:36:19;;;;;;;22.35;20.05;;;;;;;10.26;55.27;99388.66;4984869;28;20656;-72
2021/05/02 07:38:46;;;;;;;22.73;19.52;;;;;;;10.32;54.99;99382.94;4975826;28;20300;-72
2021/05/02 07:41:13;;;;;;;22.40;18.92;;;;;;;10.54;54.67;99383.38;4975854;28;20621;-73
2021/05/02 07:43:40;;;;;;;21.92;19.00;;;;;;;10.60;54.76;99382.13;4975947;28;20193;-72
2021/05/02 07:46:06;;;;;;;22.52;19.08;;;;;;;10.72;53.84;99384.06;4976063;28;20206;-71
2021/05/02 07:48:34;;;;;;;23.30;19.63;;;;;;;10.47;53.97;99387.41;4976043;28;20649;-72
2021/05/02 07:51:00;;;;;;;22.23;19.90;;;;;;;10.73;53.20;99388.47;4975596;28;20625;-73
2021/05/02 07:53:27;;;;;;;21.67;17.95;;;;;;;11.01;51.95;99389.44;4975768;28;20195;-74
2021/05/02 07:55:54;;;;;;;20.90;18.70;;;;;;;10.78;52.65;99377.41;4976028;28;20589;-73
2021/05/02 07:58:20;;;;;;;19.17;17.15;;;;;;;10.77;52.37;99381.09;4975572;28;20669;-73
2021/05/02 08:00:46;;;;;;;19.40;17.33;;;;;;;11.00;51.96;99390.41;4975742;28;20209;-72
2021/05/02 08:03:12;;;;;;;21.60;19.05;;;;;;;10.93;52.44;99389.94;4975060;28;20258;-71
2021/05/02 08:05:38;;;;;;;18.80;16.80;;;;;;;11.31;51.51;99381.25;4975385;28;20670;-72
2021/05/02 08:08:05;;;;;;;17.42;15.63;;;;;;;11.77;49.17;99386.31;4975408;28;20312;-74
2021/05/02 08:10:32;;;;;;;17.30;15.50;;;;;;;11.86;49.01;99388.38;4975478;28;20203;-73
2021/05/02 08:12:59;;;;;;;18.15;15.55;;;;;;;11.39;49.93;99384.28;4975422;28;20677;-72
2021/05/02 08:15:25;;;;;;;18.58;16.50;;;;;;;11.45;49.88;99389.28;4975535;28;20205;-71
2021/05/02 08:17:51;;;;;;;16.77;15.00;;;;;;;11.75;48.81;99396.31;4974894;28;20202;-72
2021/05/02 08:20:17;;;;;;;16.08;14.35;;;;;;;12.09;47.81;99396.81;4975602;28;20641;-72
2021/05/02 08:22:43;;;;;;;14.15;12.40;;;;;;;11.59;47.58;99403.69;4975320;28;20617;-74
2021/05/02 08:25:10;;;;;;;17.13;13.18;;;;;;;11.78;47.02;99406.94;4975643;28;20254;-72
2021/05/02 08:27:36;;;;;;;14.07;12.70;;;;;;;11.49;47.84;99403.44;4974872;28;20695;-71
2021/05/02 08:30:05;;;;;;;13.68;12.23;;;;;;;11.65;47.69;99408.69;4956188;28;20191;-73
2021/05/02 08:32:32;;;;;;;15.43;12.63;;;;;;;11.85;46.03;99399.31;4966854;28;20661;-73
2021/05/02 08:34:58;;;;;;;13.07;11.77;;;;;;;11.78;45.54;99404.22;4990919;28;20208;-71
2021/05/02 08:37:24;;;;;;;13.88;11.73;;;;;;;12.17;44.63;99391.75;4984903;28;20743;-71
2021/05/02 08:39:50;;;;;;;13.60;11.63;;;;;;;11.51;45.53;99397.94;4975459;28;20691;-72
2021/05/02 08:42:17;;;;;;;11.77;10.65;;;;;;;11.35;45.32;99406.16;4974770;28;20730;-73
2021/05/02 08:44:43;;;;;;;14.60;11.50;;;;;;;11.73;45.15;99403.66;4974995;28;20693;-73
2021/05/02 08:47:11;;;;;;;12.65;10.90;;;;;;;11.65;45.39;99403.31;4974830;28;20248;-73
2021/05/02 08:49:37;;;;;;;13.13;9.80;;;;;;;12.05;44.47;99398.88;4974392;28;20210;-73
2021/05/02 08:52:04;;;;;;;11.82;9.48;;;;;;;11.68;44.53;99395.00;4974523;28;20692;-71
2021/05/02 08:54:30;;;;;;;13.32;9.35;;;;;;;11.46;43.62;99401.81;4982495;28;20654;-73
2021/05/02 08:56:56;;;;;;;10.60;9.10;;;;;;;11.92;42.37;99407.84;4974532;28;20278;-72
2021/05/02 08:59:23;;;;;;;11.10;7.90;;;;;;;12.62;40.49;99405.78;4974699;28;20286;-72
2021/05/02 09:01:49;;;;;;;9.63;7.75;;;;;;;12.61;39.93;99414.81;4974724;28;20280;-72
2021/05/02 09:04:16;;;;;;;9.50;8.25;;;;;;;13.14;39.70;99410.19;4974267;28;20659;-70
2021/05/02 09:06:43;;;;;;;9.82;8.82;;;;;;;13.02;40.10;99407.47;4974174;28;20254;-73
2021/05/02 09:09:11;;;;;;;9.63;8.70;;;;;;;12.44;41.43;99415.16;4973945;28;20564;-73
2021/05/02 09:11:38;;;;;;;8.90;7.70;;;;;;;12.17;40.31;99416.06;4974144;28;20192;-72
2021/05/02 09:14:07;;;;;;;11.07;7.90;;;;;;;11.62;42.62;99416.97;4974430;28;20193;-72
2021/05/02 09:16:48;;;;;;;11.35;7.53;;;;;;;11.45;41.61;99416.25;4974363;28;20606;-72
2021/05/02 09:19:14;;;;;;;8.82;7.47;;;;;;;12.01;39.71;99423.47;4974523;28;20243;-71
2021/05/02 09:21:42;;;;;;;7.95;7.10;;;;;;;12.09;39.56;99410.28;4974219;28;20280;-71
2021/05/02 09:24:22;;;;;;;7.68;6.78;;;;;;;12.41;38.92;99397.28;4974042;28;20202;-72
2021/05/02 09:27:01;;;;;;;6.40;5.80;;;;;;;12.62;38.62;99404.91;4973934;28;20626;-72
2021/05/02 09:29:30;;;;;;;7.10;6.15;;;;;;;12.98;37.30;99411.38;4993090;28;20274;-73
2021/05/02 09:31:56;;;;;;;5.55;5.05;;;;;;;13.21;36.49;99404.34;4985635;28;20596;-71
2021/05/02 09:34:22;;;;;;;7.70;6.65;;;;;;;12.64;38.13;99409.22;4974239;28;20224;-71
2021/05/02 09:36:56;;;;;;;8.20;7.40;;;;;;;13.13;37.96;99413.84;4974279;28;20606;-74
2021/05/02 09:39:35;;;;;;;5.25;4.80;;;;;;;12.67;37.18;99416.25;4974190;28;20551;-72
2021/05/02 09:42:06;;;;;;;4.75;4.35;;;;;;;13.08;36.01;99410.63;4973614;28;20192;-72
2021/05/02 09:44:43;;;;;;;5.20;4.20;;;;;;;13.55;35.43;99416.31;4974281;28;20693;-73
2021/05/02 09:47:28;;;;;;;5.35;4.60;;;;;;;13.55;35.36;99405.47;4973992;28;20208;-73
2021/05/02 09:50:19;;;;;;;4.72;4.28;;;;;;;13.23;36.27;99415.88;4955080;29;20206;-73
2021/05/02 09:52:52;;;;;;;5.03;4.47;;;;;;;12.95;37.04;99423.25;4955171;29;20229;-73
2021/05/02 09:55:34;;;;;;;6.07;5.22;;;;;;;13.03;37.16;99417.34;4965245;28;20198;-73
2021/05/02 09:58:05;;;;;;;5.72;5.05;;;;;;;12.76;37.23;99426.41;4971809;28;20294;-72
2021/05/02 10:00:34;;;;;;;6.82;6.15;;;;;;;12.33;38.80;99423.97;4982045;28;20191;-73
2021/05/02 10:03:01;;;;;;;5.30;4.20;;;;;;;12.61;38.40;99428.31;4988264;28;20374;-73
2021/05/02 10:05:28;;;;;;;4.78;4.30;;;;;;;12.67;37.22;99427.91;4974076;28;20238;-73
2021/05/02 10:07:56;;;;;;;4.80;4.40;;;;;;;13.21;36.22;99420.56;4973756;28;20212;-73
2021/05/02 10:10:22;;;;;;;4.18;3.85;;;;;;;13.83;35.11;99415.09;4974121;28;20236;-74
2021/05/02 10:12:50;;;;;;;4.88;4.43;;;;;;;14.23;33.99;99425.66;4974429;28;20586;-71
2021/05/02 10:15:18;;;;;;;5.47;4.18;;;;;;;14.08;33.89;99424.97;4974063;28;20212;-69
2021/05/02 10:17:45;;;;;;;5.65;4.50;;;;;;;13.60;34.52;99438.47;4974365;28;20616;-70
2021/05/02 10:20:13;;;;;;;4.93;4.47;;;;;;;13.02;35.35;99429.09;4973688;28;20203;-72
2021/05/02 10:22:40;;;;;;;4.68;4.28;;;;;;;13.47;35.33;99434.91;4976840;28;20213;-74
2021/05/02 10:25:08;;;;;;;4.47;4.00;;;;;;;13.35;35.73;99440.25;4977459;28;20195;-74
2021/05/02 10:27:47;;;;;;;6.05;5.47;;;;;;;13.22;36.38;99422.28;4983843;28;20706;-71
2021/05/02 10:30:27;;;;;;;5.93;4.93;;;;;;;13.01;36.02;99443.59;4977135;28;20196;-73
2021/05/02 10:33:01;;;;;;;5.15;4.70;;;;;;;12.75;36.14;99432.75;4976550;28;20303;-72
2021/05/02 10:35:42;;;;;;;6.20;4.40;;;;;;;13.37;34.46;99439.28;4977343;28;20283;-71
2021/05/02 10:38:08;;;;;;;5.55;5.03;;;;;;;13.66;32.89;99431.75;4976974;28;20272;-72
2021/05/02 10:40:36;;;;;;;4.78;4.30;;;;;;;13.76;32.92;99424.66;4977253;28;20643;-71
2021/05/02 10:43:05;;;;;;;5.18;4.68;;;;;;;13.72;34.32;99424.03;4977136;28;20241;-73
2021/05/02 10:45:44;;;;;;;4.95;4.45;;;;;;;13.73;33.75;99433.03;4976971;28;20859;-74
2021/05/02 10:48:27;;;;;;;4.90;4.40;;;;;;;13.73;33.90;99424.91;4977349;28;20258;-72
2021/05/02 10:50:54;;;;;;;6.00;5.40;;;;;;;13.71;35.25;99429.56;4995434;28;20230;-74
2021/05/02 10:53:22;;;;;;;7.10;6.38;;;;;;;13.87;35.48;99430.16;4986337;28;20222;-75
2021/05/02 10:55:52;;;;;;;6.95;5.25;;;;;;;13.04;36.84;99441.53;4977256;28;20284;-73
2021/05/02 10:58:20;;;;;;;6.53;5.93;;;;;;;12.97;37.23;99442.09;4976813;28;20196;-72
2021/05/02 11:00:48;;;;;;;7.53;6.65;;;;;;;12.65;37.89;99442.50;4976671;28;20200;-74
2021/05/02 11:03:50;;;;;;;8.48;6.38;;;;;;;12.75;38.40;99442.72;4976716;28;20279;-73
2021/05/02 11:06:48;;;;;;;8.15;6.57;;;;;;;13.48;36.94;99453.75;4957390;29;20282;-72
2021/05/02 11:09:16;;;;;;;6.85;6.13;;;;;;;14.02;35.27;99444.41;4964531;28;20192;-71
2021/05/02 11:11:46;;;;;;;6.95;6.10;;;;;;;14.01;34.89;99436.38;4976674;28;20196;-72
2021/05/02 11:14:39;;;;;;;6.93;6.15;;;;;;;13.90;34.61;99451.56;4977520;28;20570;-72
2021/05/02 11:17:31;;;;;;;6.70;5.43;;;;;;;13.72;35.06;99453.78;4943172;28;20227;-74
2021/05/02 11:19:59;;;;;;;6.00;5.10;;;;;;;13.65;34.75;99457.06;4976635;28;20192;-74
2021/05/02 11:22:27;;;;;;;6.00;5.40;;;;;;;13.17;35.39;99457.75;4977833;28;20615;-73
2021/05/02 11:25:16;;;;;;;7.53;5.57;;;;;;;13.43;35.32;99453.22;4976859;28;20192;-75
2021/05/02 11:27:51;;;;;;;5.15;4.65;;;;;;;13.26;33.64;99456.25;4977030;28;20224;-72
2021/05/02 11:30:21;;;;;;;6.15;5.55;;;;;;;13.12;33.49;99459.94;4976576;28;20192;-74